createdAt,value
2019-05-01T00:01:22.087Z,1.07
2019-05-01T00:04:08.606Z,1.30
2019-05-01T00:06:46.546Z,1.20
2019-05-01T00:09:18.357Z,0.80
2019-05-01T00:11:49.748Z,0.80
2019-05-01T00:14:21.233Z,0.95
2019-05-01T00:16:52.865Z,0.90
2019-05-01T00:19:24.224Z,0.70
2019-05-01T00:21:55.915Z,0.70
2019-05-01T00:24:27.513Z,0.82
2019-05-01T00:26:59.248Z,0.80
2019-05-01T00:29:31.093Z,0.95
2019-05-01T00:32:03.021Z,1.02
2019-05-01T00:34:34.688Z,0.80
2019-05-01T00:37:06.101Z,1.02
2019-05-01T00:39:37.716Z,1.10
2019-05-01T00:42:09.282Z,1.20
2019-05-01T00:44:41.214Z,0.93
2019-05-01T00:47:12.637Z,0.90
2019-05-01T00:49:44.286Z,0.90
2019-05-01T00:52:15.801Z,1.10
2019-05-01T00:54:48.698Z,1.10
2019-05-01T00:57:49.223Z,0.93
2019-05-01T01:00:42.583Z,1.00
2019-05-01T01:03:06.580Z,1.00
2019-05-01T01:05:38.196Z,1.00
2019-05-01T01:08:09.637Z,0.95
2019-05-01T01:10:41.029Z,0.80
2019-05-01T01:13:12.718Z,1.00
2019-05-01T01:15:44.290Z,1.02
2019-05-01T01:18:15.749Z,0.95
2019-05-01T01:20:47.650Z,1.10
2019-05-01T01:23:19.282Z,1.20
2019-05-01T01:25:51.014Z,1.22
2019-05-01T01:28:23.349Z,1.10
2019-05-01T01:30:56.420Z,1.12
2019-05-01T01:33:28.329Z,0.90
2019-05-01T01:35:59.884Z,1.00
2019-05-01T01:38:31.298Z,1.00
2019-05-01T01:41:03.735Z,0.80
2019-05-01T01:43:47.079Z,0.68
2019-05-01T01:46:20.655Z,0.72
2019-05-01T01:48:52.305Z,0.60
2019-05-01T01:51:24.235Z,0.65
2019-05-01T01:53:56.075Z,0.60
2019-05-01T01:56:27.903Z,0.55
2019-05-01T01:58:59.431Z,0.88
2019-05-01T02:01:50.028Z,0.68
2019-05-01T02:04:34.452Z,0.55
2019-05-01T02:07:05.963Z,0.60
2019-05-01T02:09:38.723Z,0.70
2019-05-01T02:12:10.289Z,0.70
2019-05-01T02:14:41.949Z,0.72
2019-05-01T02:17:13.729Z,0.80
2019-05-01T02:19:45.059Z,0.80
2019-05-01T02:22:16.531Z,0.70
2019-05-01T02:24:47.924Z,0.80
2019-05-01T02:27:25.310Z,0.70
2019-05-01T02:29:59.602Z,0.70
2019-05-01T02:32:30.924Z,0.70
2019-05-01T02:35:02.757Z,0.72
2019-05-01T02:37:35.374Z,0.80
2019-05-01T02:40:27.056Z,0.80
2019-05-01T02:43:00.128Z,1.00
2019-05-01T02:45:32.638Z,0.72
2019-05-01T02:48:05.621Z,0.93
2019-05-01T02:50:39.552Z,0.82
2019-05-01T02:53:11.495Z,0.90
2019-05-01T02:55:48.970Z,0.85
2019-05-01T02:58:20.585Z,0.90
2019-05-01T03:00:52.059Z,0.80
2019-05-01T03:03:23.768Z,0.90
2019-05-01T03:05:55.474Z,1.05
2019-05-01T03:08:27.494Z,0.80
2019-05-01T03:10:59.104Z,0.90
2019-05-01T03:13:32.047Z,0.88
2019-05-01T03:16:04.691Z,0.90
2019-05-01T03:18:40.012Z,0.72
2019-05-01T03:21:39.927Z,0.90
2019-05-01T03:24:18.505Z,0.90
2019-05-01T03:26:50.643Z,1.10
2019-05-01T03:29:22.511Z,0.90
2019-05-01T03:32:15.613Z,0.90
2019-05-01T03:34:28.590Z,1.05
2019-05-01T03:37:00.436Z,1.12
2019-05-01T03:39:32.078Z,1.30
2019-05-01T03:42:03.831Z,1.20
2019-05-01T03:44:35.570Z,0.93
2019-05-01T03:47:07.225Z,0.90
2019-05-01T03:49:39.095Z,1.17
2019-05-01T03:52:10.659Z,1.00
2019-05-01T03:54:42.266Z,1.20
2019-05-01T03:57:14.167Z,1.02
2019-05-01T03:59:46.174Z,1.15
2019-05-01T04:02:43.583Z,1.40
2019-05-01T04:05:15.386Z,1.55
2019-05-01T04:07:47.705Z,1.10
2019-05-01T04:10:19.539Z,1.50
2019-05-01T04:12:51.195Z,1.30
2019-05-01T04:15:23.087Z,1.20
2019-05-01T04:17:56.564Z,1.22
2019-05-01T04:20:29.722Z,1.47
2019-05-01T04:23:01.661Z,1.17
2019-05-01T04:25:33.262Z,1.30
2019-05-01T04:28:23.802Z,1.62
2019-05-01T04:31:02.872Z,1.50
2019-05-01T04:33:35.691Z,1.47
2019-05-01T04:36:14.461Z,1.12
2019-05-01T04:38:46.292Z,1.30
2019-05-01T04:41:17.877Z,1.35
2019-05-01T04:43:49.702Z,1.30
2019-05-01T04:46:21.205Z,1.30
2019-05-01T04:48:53.124Z,1.82
2019-05-01T04:51:24.724Z,1.02
2019-05-01T04:53:56.462Z,1.60
2019-05-01T04:56:28.045Z,1.50
2019-05-01T04:58:59.921Z,3.33
2019-05-01T05:01:50.126Z,1.93
2019-05-01T05:04:21.606Z,1.30
2019-05-01T05:06:53.989Z,1.27
2019-05-01T05:09:45.517Z,1.40
2019-05-01T05:12:52.365Z,1.50
2019-05-01T05:15:47.081Z,1.40
2019-05-01T05:18:18.225Z,1.53
2019-05-01T05:20:50.153Z,1.37
2019-05-01T05:23:21.364Z,2.10
2019-05-01T05:25:53.520Z,2.80
2019-05-01T05:28:26.461Z,1.40
2019-05-01T05:30:59.895Z,1.30
2019-05-01T05:33:34.655Z,1.43
2019-05-01T05:36:08.343Z,1.10
2019-05-01T05:39:03.558Z,1.47
2019-05-01T05:41:35.533Z,1.23
2019-05-01T05:44:07.677Z,1.30
2019-05-01T05:46:39.333Z,1.20
2019-05-01T05:49:10.901Z,1.80
2019-05-01T05:51:59.450Z,2.10
2019-05-01T05:55:00.085Z,1.47
2019-05-01T05:57:41.763Z,1.30
2019-05-01T06:00:25.033Z,1.50
2019-05-01T06:03:12.853Z,1.70
2019-05-01T06:06:06.139Z,1.50
2019-05-01T06:08:40.249Z,1.47
2019-05-01T06:11:34.024Z,1.30
2019-05-01T06:14:38.376Z,1.20
2019-05-01T06:17:28.436Z,1.10
2019-05-01T06:20:15.974Z,1.33
2019-05-01T06:23:20.472Z,0.97
2019-05-01T06:25:54.210Z,0.90
2019-05-01T06:28:29.609Z,1.10
2019-05-01T06:31:22.980Z,0.93
2019-05-01T06:33:52.990Z,0.97
2019-05-01T06:36:24.943Z,1.20
2019-05-01T06:38:56.291Z,1.00
2019-05-01T06:41:33.717Z,1.07
2019-05-01T06:44:09.630Z,1.27
2019-05-01T06:47:03.393Z,1.10
2019-05-01T06:49:39.568Z,0.90
2019-05-01T06:52:11.848Z,1.07
2019-05-01T06:54:43.446Z,0.63
2019-05-01T06:57:14.680Z,2.43
2019-05-01T06:59:47.073Z,1.00
2019-05-01T07:02:19.504Z,1.00
2019-05-01T07:04:51.708Z,0.80
2019-05-01T07:07:25.805Z,1.43
2019-05-01T07:09:58.328Z,0.90
2019-05-01T07:12:31.593Z,1.20
2019-05-01T07:15:05.293Z,1.03
2019-05-01T07:17:37.360Z,1.10
2019-05-01T07:20:28.222Z,1.03
2019-05-01T07:22:59.338Z,0.80
2019-05-01T07:25:34.646Z,0.97
2019-05-01T07:28:03.718Z,2.20
2019-05-01T07:30:54.733Z,1.00
2019-05-01T07:33:26.201Z,1.00
2019-05-01T07:35:57.448Z,1.03
2019-05-01T07:38:28.664Z,0.90
2019-05-01T07:41:03.389Z,1.23
2019-05-01T07:43:54.821Z,0.80
2019-05-01T07:46:36.449Z,0.80
2019-05-01T07:49:07.891Z,1.30
2019-05-01T07:51:42.380Z,0.80
2019-05-01T07:54:14.578Z,0.87
2019-05-01T07:56:45.894Z,1.33
2019-05-01T07:59:16.989Z,1.30
2019-05-01T08:02:08.592Z,1.10
2019-05-01T08:04:39.849Z,0.80
2019-05-01T08:07:10.838Z,0.90
2019-05-01T08:09:45.837Z,1.00
2019-05-01T08:12:18.996Z,1.10
2019-05-01T08:14:52.394Z,1.13
2019-05-01T08:17:23.159Z,0.93
2019-05-01T08:20:09.932Z,1.10
2019-05-01T08:22:40.351Z,1.10
2019-05-01T08:25:11.611Z,2.77
2019-05-01T08:28:00.650Z,0.90
2019-05-01T08:30:40.401Z,1.20
2019-05-01T08:33:49.946Z,2.03
2019-05-01T08:36:21.185Z,1.03
2019-05-01T08:38:52.256Z,1.00
2019-05-01T08:41:27.019Z,1.07
2019-05-01T08:43:56.563Z,1.13
2019-05-01T08:46:38.569Z,1.13
2019-05-01T08:49:20.243Z,1.07
2019-05-01T08:52:04.889Z,0.80
2019-05-01T08:54:34.862Z,1.07
2019-05-01T08:57:08.030Z,1.00
2019-05-01T08:59:39.505Z,0.90
2019-05-01T09:02:10.598Z,2.87
2019-05-01T09:04:41.741Z,1.40
2019-05-01T09:07:14.620Z,2.10
2019-05-01T09:09:47.460Z,3.00
2019-05-01T09:12:18.594Z,2.03
2019-05-01T09:14:51.309Z,1.30
2019-05-01T09:17:22.761Z,2.53
2019-05-01T09:19:53.951Z,2.70
2019-05-01T09:22:25.550Z,1.10
2019-05-01T09:24:59.969Z,1.53
2019-05-01T09:27:44.957Z,2.73
2019-05-01T09:30:26.896Z,1.40
2019-05-01T09:32:58.227Z,1.00
2019-05-01T09:35:30.859Z,1.20
2019-05-01T09:38:02.586Z,1.33
2019-05-01T09:40:34.205Z,1.60
2019-05-01T09:43:05.736Z,1.30
2019-05-01T09:45:37.053Z,2.47
2019-05-01T09:48:08.963Z,0.90
2019-05-01T09:50:44.657Z,1.00
2019-05-01T09:53:41.271Z,2.20
2019-05-01T09:56:15.621Z,0.80
2019-05-01T09:58:46.547Z,0.97
2019-05-01T10:01:17.805Z,1.00
2019-05-01T10:03:49.372Z,1.00
2019-05-01T10:06:21.683Z,1.40
2019-05-01T10:08:53.010Z,1.20
2019-05-01T10:11:24.087Z,0.93
2019-05-01T10:13:58.517Z,1.20
2019-05-01T10:16:27.979Z,1.00
2019-05-01T10:18:59.246Z,0.70
2019-05-01T10:21:30.215Z,2.67
2019-05-01T10:24:01.403Z,1.87
2019-05-01T10:26:34.054Z,0.80
2019-05-01T10:29:29.970Z,1.83
2019-05-01T10:32:21.698Z,1.70
2019-05-01T10:34:57.250Z,1.00
2019-05-01T10:37:33.209Z,1.00
2019-05-01T10:40:00.857Z,0.90
2019-05-01T10:42:33.467Z,1.10
2019-05-01T10:45:04.945Z,0.90
2019-05-01T10:47:36.229Z,1.23
2019-05-01T10:50:07.476Z,0.93
2019-05-01T10:52:38.754Z,0.90
2019-05-01T10:55:09.947Z,2.60
2019-05-01T10:57:42.207Z,1.70
2019-05-01T11:00:13.775Z,2.30
2019-05-01T11:02:44.745Z,1.20
2019-05-01T11:05:15.913Z,1.30
2019-05-01T11:07:47.285Z,1.23
2019-05-01T11:10:20.273Z,1.63
2019-05-01T11:12:51.296Z,1.00
2019-05-01T11:15:22.710Z,2.80
2019-05-01T11:17:54.007Z,1.40
2019-05-01T11:20:25.712Z,1.70
2019-05-01T11:22:57.009Z,3.20
2019-05-01T11:25:28.397Z,1.40
2019-05-01T11:27:59.709Z,1.33
2019-05-01T11:30:31.100Z,0.90
2019-05-01T11:33:24.032Z,2.00
2019-05-01T11:36:13.085Z,1.27
2019-05-01T11:38:55.281Z,1.37
2019-05-01T11:41:33.894Z,1.20
2019-05-01T11:44:05.676Z,1.47
2019-05-01T11:46:36.683Z,6.13
2019-05-01T11:49:08.521Z,1.03
2019-05-01T11:51:39.629Z,1.67
2019-05-01T11:54:12.075Z,1.70
2019-05-01T11:56:43.490Z,2.90
2019-05-01T11:59:15.484Z,1.17
2019-05-01T12:01:46.795Z,1.03
2019-05-01T12:04:17.735Z,1.13
2019-05-01T12:06:48.856Z,1.63
2019-05-01T12:09:20.023Z,1.00
2019-05-01T12:11:53.343Z,1.20
2019-05-01T12:14:24.533Z,1.00
2019-05-01T12:17:13.056Z,1.40
2019-05-01T12:19:44.095Z,1.10
2019-05-01T12:22:15.142Z,1.10
2019-05-01T12:24:46.369Z,1.00
2019-05-01T12:27:17.620Z,1.20
2019-05-01T12:29:48.968Z,1.83
2019-05-01T12:32:20.052Z,1.40
2019-05-01T12:34:51.166Z,1.47
2019-05-01T12:37:31.910Z,1.20
2019-05-01T12:40:03.156Z,1.73
2019-05-01T12:42:34.719Z,2.33
2019-05-01T12:45:07.082Z,2.57
2019-05-01T12:47:57.129Z,1.87
2019-05-01T12:50:28.502Z,3.03
2019-05-01T12:53:16.850Z,1.67
2019-05-01T12:56:09.779Z,1.60
2019-05-01T12:58:40.761Z,1.30
2019-05-01T13:01:12.048Z,2.47
2019-05-01T13:03:43.268Z,2.00
2019-05-01T13:06:14.654Z,1.30
2019-05-01T13:08:45.959Z,2.97
2019-05-01T13:11:17.094Z,2.37
2019-05-01T13:13:48.322Z,1.40
2019-05-01T13:16:19.483Z,3.20
2019-05-01T13:18:50.453Z,1.30
2019-05-01T13:21:21.535Z,2.50
2019-05-01T13:23:52.676Z,1.20
2019-05-01T13:26:55.116Z,1.43
2019-05-01T13:29:38.426Z,1.27
2019-05-01T13:32:19.281Z,1.00
2019-05-01T13:34:53.098Z,5.20
2019-05-01T13:37:24.140Z,2.50
2019-05-01T13:39:55.303Z,10.77
2019-05-01T13:42:26.344Z,6.00
2019-05-01T13:44:57.332Z,1.93
2019-05-01T13:47:28.410Z,3.80
2019-05-01T13:49:59.819Z,3.43
2019-05-01T13:52:30.921Z,1.90
2019-05-01T13:55:02.293Z,2.83
2019-05-01T13:57:33.226Z,2.93
2019-05-01T14:00:04.625Z,2.70
2019-05-01T14:02:37.357Z,1.70
2019-05-01T14:05:08.475Z,7.33
2019-05-01T14:07:39.765Z,1.83
2019-05-01T14:10:11.019Z,1.10
2019-05-01T14:12:42.076Z,1.40
2019-05-01T14:15:13.215Z,1.80
2019-05-01T14:17:44.713Z,1.70
2019-05-01T14:20:34.057Z,2.90
2019-05-01T14:23:22.190Z,1.63
2019-05-01T14:26:06.296Z,1.70
2019-05-01T14:28:37.565Z,1.60
2019-05-01T14:31:08.722Z,1.67
2019-05-01T14:33:39.801Z,1.60
2019-05-01T14:36:10.909Z,1.87
2019-05-01T14:38:42.253Z,1.30
2019-05-01T14:41:13.566Z,1.00
2019-05-01T14:43:44.692Z,1.27
2019-05-01T14:46:15.735Z,1.17
2019-05-01T14:48:47.074Z,1.40
2019-05-01T14:51:21.373Z,1.77
2019-05-01T14:53:50.835Z,1.40
2019-05-01T14:56:21.789Z,1.50
2019-05-01T14:58:52.775Z,1.40
2019-05-01T15:01:23.789Z,1.63
2019-05-01T15:03:55.073Z,1.87
2019-05-01T15:06:26.575Z,1.30
2019-05-01T15:08:57.874Z,1.50
2019-05-01T15:11:29.065Z,1.50
2019-05-01T15:14:22.723Z,1.50
2019-05-01T15:17:15.478Z,1.30
2019-05-01T15:19:51.622Z,1.30
2019-05-01T15:22:22.684Z,1.67
2019-05-01T15:24:53.878Z,1.20
2019-05-01T15:27:25.188Z,1.40
2019-05-01T15:29:56.315Z,1.87
2019-05-01T15:32:28.370Z,1.83
2019-05-01T15:34:59.550Z,1.50
2019-05-01T15:37:30.599Z,1.30
2019-05-01T15:40:11.768Z,1.40
2019-05-01T15:42:50.733Z,1.60
2019-05-01T15:45:21.980Z,1.50
2019-05-01T15:47:53.247Z,1.83
2019-05-01T15:50:24.635Z,1.43
2019-05-01T15:52:56.075Z,1.30
2019-05-01T15:55:27.742Z,1.90
2019-05-01T15:57:58.856Z,1.80
2019-05-01T16:00:30.140Z,2.50
2019-05-01T16:03:01.228Z,1.27
2019-05-01T16:05:32.469Z,1.40
2019-05-01T16:08:09.783Z,1.50
2019-05-01T16:10:42.706Z,1.30
2019-05-01T16:13:13.927Z,2.17
2019-05-01T16:15:45.284Z,1.40
2019-05-01T16:18:16.537Z,2.63
2019-05-01T16:20:47.777Z,2.20
2019-05-01T16:23:19.064Z,1.33
2019-05-01T16:25:50.310Z,1.40
2019-05-01T16:28:21.386Z,1.63
2019-05-01T16:30:52.636Z,1.50
2019-05-01T16:33:23.918Z,2.70
2019-05-01T16:35:55.311Z,2.03
2019-05-01T16:38:34.288Z,1.87
2019-05-01T16:41:07.539Z,7.87
2019-05-01T16:43:38.720Z,5.93
2019-05-01T16:46:09.941Z,2.30
2019-05-01T16:48:40.918Z,2.17
2019-05-01T16:51:12.079Z,3.07
2019-05-01T16:53:43.128Z,2.40
2019-05-01T16:56:14.328Z,3.07
2019-05-01T16:58:45.242Z,2.37
2019-05-01T17:01:44.375Z,2.73
2019-05-01T17:04:26.559Z,2.07
2019-05-01T17:07:09.071Z,2.70
2019-05-01T17:10:08.066Z,2.67
2019-05-01T17:12:49.829Z,2.90
2019-05-01T17:15:27.230Z,2.73
2019-05-01T17:17:58.471Z,2.83
2019-05-01T17:20:30.262Z,2.53
2019-05-01T17:23:02.152Z,2.80
2019-05-01T17:25:33.535Z,2.67
2019-05-01T17:28:08.143Z,2.87
2019-05-01T17:30:47.592Z,2.57
2019-05-01T17:33:20.836Z,6.00
2019-05-01T17:35:51.844Z,2.43
2019-05-01T17:38:23.129Z,2.97
2019-05-01T17:40:54.651Z,2.50
2019-05-01T17:43:25.951Z,3.00
2019-05-01T17:45:57.272Z,2.60
2019-05-01T17:48:33.222Z,2.87
2019-05-01T17:51:02.003Z,3.30
2019-05-01T17:53:33.038Z,3.20
2019-05-01T17:56:04.260Z,3.03
2019-05-01T17:58:35.472Z,4.10
2019-05-01T18:01:27.534Z,3.90
2019-05-01T18:04:16.072Z,5.03
2019-05-01T18:06:49.256Z,2.77
2019-05-01T18:09:20.244Z,5.40
2019-05-01T18:11:52.253Z,4.47
2019-05-01T18:14:24.014Z,4.80
2019-05-01T18:16:55.087Z,2.73
2019-05-01T18:19:26.105Z,3.13
2019-05-01T18:22:09.604Z,5.37
2019-05-01T18:25:15.131Z,15.10
2019-05-01T18:28:04.498Z,7.50
2019-05-01T18:30:40.613Z,3.70
2019-05-01T18:33:11.752Z,3.57
2019-05-01T18:35:44.950Z,3.40
2019-05-01T18:38:47.655Z,3.37
2019-05-01T18:41:39.328Z,4.33
2019-05-01T18:44:11.414Z,3.40
2019-05-01T18:46:42.753Z,3.60
2019-05-01T18:49:13.998Z,4.57
2019-05-01T18:51:45.251Z,3.73
2019-05-01T18:54:16.241Z,4.80
2019-05-01T18:56:47.322Z,4.77
2019-05-01T18:59:18.767Z,7.80
2019-05-01T19:01:49.919Z,10.90
2019-05-01T19:04:23.533Z,14.60
2019-05-01T19:06:54.117Z,4.47
2019-05-01T19:09:30.136Z,4.77
2019-05-01T19:11:58.802Z,4.13
2019-05-01T19:14:30.839Z,4.10
2019-05-01T19:17:02.105Z,3.60
2019-05-01T19:19:33.624Z,3.77
2019-05-01T19:22:06.314Z,3.27
2019-05-01T19:24:39.930Z,3.33
2019-05-01T19:27:14.222Z,3.57
2019-05-01T19:29:44.472Z,3.60
2019-05-01T19:32:16.618Z,3.13
2019-05-01T19:34:48.048Z,3.30
2019-05-01T19:37:22.072Z,3.40
2019-05-01T19:39:53.779Z,3.53
2019-05-01T19:42:24.808Z,3.47
2019-05-01T19:44:57.466Z,3.47
2019-05-01T19:47:28.875Z,3.63
2019-05-01T19:50:06.832Z,3.33
2019-05-01T19:52:38.001Z,3.80
2019-05-01T19:55:07.676Z,4.10
2019-05-01T19:57:40.003Z,3.70
2019-05-01T20:00:12.459Z,3.73
2019-05-01T20:02:43.682Z,3.47
2019-05-01T20:05:15.029Z,4.00
2019-05-01T20:07:46.260Z,3.70
2019-05-01T20:10:18.326Z,3.73
2019-05-01T20:12:49.793Z,3.50
2019-05-01T20:15:25.140Z,3.40
2019-05-01T20:17:54.093Z,4.10
2019-05-01T20:20:25.434Z,7.67
2019-05-01T20:22:56.483Z,6.10
2019-05-01T20:25:27.403Z,4.90
2019-05-01T20:27:58.659Z,3.67
2019-05-01T20:30:29.952Z,3.53
2019-05-01T20:33:02.256Z,3.93
2019-05-01T20:35:34.437Z,4.47
2019-05-01T20:38:05.945Z,3.47
2019-05-01T20:40:37.170Z,3.97
2019-05-01T20:43:08.441Z,4.43
2019-05-01T20:45:39.932Z,4.33
2019-05-01T20:48:11.413Z,4.53
2019-05-01T20:50:42.654Z,4.60
2019-05-01T20:53:13.935Z,4.50
2019-05-01T20:55:50.644Z,4.70
2019-05-01T20:58:22.843Z,5.73
2019-05-01T21:00:58.496Z,5.57
2019-05-01T21:03:29.870Z,6.50
2019-05-01T21:06:28.976Z,6.70
2019-05-01T21:09:13.110Z,8.00
2019-05-01T21:11:46.778Z,7.47
2019-05-01T21:14:20.062Z,10.18
2019-05-01T21:16:49.693Z,9.50
2019-05-01T21:19:20.671Z,10.43
2019-05-01T21:21:53.643Z,9.30
2019-05-01T21:24:25.835Z,16.50
2019-05-01T21:26:57.158Z,11.47
2019-05-01T21:29:28.508Z,9.87
2019-05-01T21:31:59.951Z,9.90
2019-05-01T21:34:33.323Z,13.70
2019-05-01T21:37:04.934Z,9.93
2019-05-01T21:39:35.953Z,10.83
2019-05-01T21:42:11.589Z,10.63
2019-05-01T21:44:40.306Z,10.67
2019-05-01T21:47:11.516Z,11.23
2019-05-01T21:49:43.000Z,10.30
2019-05-01T21:52:18.013Z,18.10
2019-05-01T21:54:50.124Z,11.80
2019-05-01T21:57:20.294Z,14.68
2019-05-01T21:59:51.732Z,11.90
2019-05-01T22:02:23.188Z,10.72
2019-05-01T22:04:54.552Z,10.53
2019-05-01T22:07:27.886Z,11.10
2019-05-01T22:09:59.634Z,11.03
2019-05-01T22:12:31.037Z,10.03
2019-05-01T22:15:10.464Z,8.75
2019-05-01T22:17:47.380Z,8.88
2019-05-01T22:20:23.139Z,8.23
2019-05-01T22:22:59.364Z,8.18
2019-05-01T22:25:35.128Z,7.87
2019-05-01T22:28:20.681Z,8.08
2019-05-01T22:31:03.016Z,7.42
2019-05-01T22:33:35.049Z,8.18
2019-05-01T22:36:06.994Z,7.65
2019-05-01T22:38:38.560Z,7.20
2019-05-01T22:41:11.748Z,7.90
2019-05-01T22:43:43.183Z,7.78
2019-05-01T22:46:27.976Z,7.75
2019-05-01T22:48:59.728Z,7.33
2019-05-01T22:51:30.979Z,7.60
2019-05-01T22:54:20.341Z,8.35
2019-05-01T22:56:52.114Z,8.03
2019-05-01T22:59:23.486Z,7.78
2019-05-01T23:01:58.244Z,8.15
2019-05-01T23:04:29.715Z,8.20
2019-05-01T23:07:01.367Z,7.60
2019-05-01T23:09:33.308Z,8.03
2019-05-01T23:12:05.059Z,7.40
2019-05-01T23:14:36.610Z,7.95
2019-05-01T23:17:29.703Z,8.43
2019-05-01T23:20:04.066Z,7.53
2019-05-01T23:22:34.623Z,7.30
2019-05-01T23:25:06.349Z,7.45
2019-05-01T23:27:37.961Z,6.85
2019-05-01T23:30:10.327Z,6.65
2019-05-01T23:32:41.823Z,7.58
2019-05-01T23:35:13.462Z,6.65
2019-05-01T23:37:44.841Z,6.45
2019-05-01T23:40:17.040Z,6.15
2019-05-01T23:42:52.844Z,6.10
2019-05-01T23:45:22.689Z,6.03
2019-05-01T23:47:54.239Z,6.05
2019-05-01T23:50:25.524Z,6.17
2019-05-01T23:52:57.228Z,5.90
2019-05-01T23:55:28.732Z,5.62
2019-05-01T23:58:00.289Z,5.75
